Flight Track Log - Related Links

Times and Time Zones

All times are in EDT time to prevent confusion due to time zone crossing. See the D-AIMA flight status page for this flight to view local times or setup timezone preferences in your user account.

Time Position Orientation Groundspeed Altitude Reporting Facility
EDT Latitude Longitude Course Direction KTS MPH feet Rate Location/Type
Thu 01:25:18 PM -26.1340 28.2380 13° North 124 143 5,200  Level FlightAware ADS-B
Thu 01:25:48 PM -26.1110 28.2450 15° North 183 211 5,400 655 Climbing FlightAware ADS-B
Thu 01:26:13 PM -26.0920 28.2510 16° North 186 214 5,800 1,200 Climbing FlightAware ADS-B
Thu 01:26:28 PM -26.0780 28.2550 14° North 186 214 6,200 1,467 Climbing FlightAware ADS-B
Thu 01:26:58 PM -26.0550 28.2610 13° North 189 217 6,900 1,333 Climbing FlightAware ADS-B
Thu 01:27:13 PM -26.0420 28.2540 334° Northwest 194 223 7,200 1,200 Climbing FlightAware ADS-B
Thu 01:27:23 PM -26.0370 28.2450 302° West 196 226 7,400 1,200 Climbing FlightAware ADS-B
Thu 01:27:53 PM -26.0250 28.2200 298° West 203 234 8,000 1,067 Climbing FlightAware ADS-B
Thu 01:28:08 PM -26.0140 28.2070 313° West 217 250 8,200 750 Climbing FlightAware ADS-B
Thu 01:28:33 PM -25.9900 28.1900 328° Northwest 240 276 8,500 764 Climbing FlightAware ADS-B
Thu 01:29:03 PM -25.9610 28.1700 328° Northwest 269 310 8,900 1,200 Climbing FlightAware ADS-B
Thu 01:29:18 PM -25.9440 28.1590 330° Northwest 274 315 9,400 1,745 Climbing FlightAware ADS-B
Thu 01:29:58 PM -25.9000 28.1300 329° Northwest 293 337 10,500 1,271 Climbing FlightAware ADS-B
Thu 01:30:43 PM -25.8480 28.0890 325° Northwest 328 377 11,200 847 Climbing FlightAware ADS-B
Thu 01:31:23 PM -25.7960 28.0420 321° Northwest 362 417 11,700 1,129 Climbing FlightAware ADS-B
Thu 01:32:08 PM -25.7360 27.9890 321° Northwest 381 438 12,800 1,624 Climbing FlightAware ADS-B
Thu 01:32:48 PM -25.6830 27.9400 320° Northwest 386 444 14,000 1,875 Climbing FlightAware ADS-B
Thu 01:33:28 PM -25.6260 27.8890 321° Northwest 391 450 15,300 1,835 Climbing FlightAware ADS-B
Thu 01:34:13 PM -25.5600 27.8300 321° Northwest 396 456 16,600 1,482 Climbing FlightAware ADS-B
Thu 01:34:53 PM -25.5050 27.7810 321° Northwest 409 471 17,400 1,200 Climbing FlightAware ADS-B
Thu 01:35:33 PM -25.4450 27.7270 321° Northwest 420 483 18,200 1,482 Climbing FlightAware ADS-B
Thu 01:36:18 PM -25.3740 27.6650 322° Northwest 422 486 19,500 1,412 Climbing FlightAware ADS-B
Thu 01:36:58 PM -25.3180 27.6150 321° Northwest 429 494 20,200 1,275 Climbing FlightAware ADS-B
Thu 01:37:38 PM -25.2500 27.5530 320° Northwest 433 498 21,200 1,275 Climbing FlightAware ADS-B
Thu 01:38:18 PM -25.1950 27.5050 322° Northwest 436 502 21,900 1,133 Climbing FlightAware ADS-B
Thu 01:39:08 PM -25.1950 27.5050 322° Northwest 444 511 22,900 733 Climbing FlightAware ADS-B
Thu 01:39:48 PM -25.0510 27.3770 321° Northwest 445 512 23,000 75 Climbing FlightAware ADS-B
Thu 01:40:28 PM -24.9970 27.3280 321° Northwest 445 512 23,000  Level FlightAware ADS-B
Thu 01:41:08 PM -24.9430 27.2800 321° Northwest 445 512 23,000  Level FlightAware ADS-B
Thu 01:41:48 PM -24.8880 27.2310 321° Northwest 445 512 23,000  Level FlightAware ADS-B
Thu 01:42:28 PM -24.8340 27.1830 321° Northwest 445 512 23,000  Level FlightAware ADS-B
Thu 01:43:18 PM -24.7660 27.1220 321° Northwest 445 512 23,000 33 Level FlightAware ADS-B
Thu 01:45:00 PM -24.5534 27.0717 348° North  Level Estimated
Thu 01:46:00 PM -24.4284 27.0422 348° North  Level Estimated
Thu 01:47:00 PM -24.3034 27.0127 348° North  Level Estimated
Thu 01:48:00 PM -24.1783 26.9834 348° North  Level Estimated
Thu 01:49:00 PM -24.0532 26.9540 348° North  Level Estimated
Thu 01:50:00 PM -23.9282 26.9247 348° North  Level Estimated
Thu 01:51:00 PM -23.8031 26.8955 348° North  Level Estimated
Thu 01:52:00 PM -23.6780 26.8664 348° North  Level Estimated
Thu 01:53:00 PM -23.5529 26.8372 348° North  Level Estimated
Thu 01:54:00 PM -23.4278 26.8082 348° North  Level Estimated
Thu 01:55:00 PM -23.3027 26.7792 348° North  Level Estimated
Thu 01:56:00 PM -23.1777 26.7503 348° North  Level Estimated
Thu 01:57:00 PM -23.0525 26.7214 348° North  Level Estimated
Thu 01:58:00 PM -22.9274 26.6925 348° North  Level Estimated
Thu 01:59:00 PM -22.8023 26.6637 348° North  Level Estimated
Thu 02:00:00 PM -22.6772 26.6350 348° North  Level Estimated
Thu 02:01:00 PM -22.5521 26.6063 348° North  Level Estimated
Thu 02:02:00 PM -22.4270 26.5777 348° North  Level Estimated
Thu 02:03:00 PM -22.3018 26.5491 348° North  Level Estimated
Thu 02:04:00 PM -22.1767 26.5206 348° North  Level Estimated
Thu 02:05:00 PM -22.0515 26.4921 348° North  Level Estimated
Thu 02:06:00 PM -21.9264 26.4637 348° North  Level Estimated
Thu 02:07:00 PM -21.8012 26.4354 348° North  Level Estimated
Thu 02:08:00 PM -21.6761 26.4070 348° North  Level Estimated
Thu 02:09:00 PM -21.5509 26.3788 348° North  Level Estimated
Thu 02:10:00 PM -21.4257 26.3505 348° North  Level Estimated
Thu 02:11:00 PM -21.3006 26.3224 348° North  Level Estimated
Thu 02:12:00 PM -21.1754 26.2942 348° North  Level Estimated
Thu 02:13:00 PM -21.0502 26.2662 348° North  Level Estimated
Thu 02:14:00 PM -20.9250 26.2381 348° North  Level Estimated
Thu 02:15:00 PM -20.7998 26.2101 348° North  Level Estimated
Thu 02:16:00 PM -20.6746 26.1822 348° North  Level Estimated
Thu 02:17:00 PM -20.5494 26.1543 348° North  Level Estimated
Thu 02:18:00 PM -20.4242 26.1265 348° North  Level Estimated
Thu 02:19:00 PM -20.2990 26.0987 348° North  Level Estimated
Thu 02:20:00 PM -20.1738 26.0709 348° North  Level Estimated
Thu 02:21:00 PM -20.0486 26.0432 348° North  Level Estimated
Thu 02:22:00 PM -19.9233 26.0155 348° North  Level Estimated
Thu 02:23:00 PM -19.7981 25.9879 348° North  Level Estimated
Thu 02:24:00 PM -19.6729 25.9603 348° North  Level Estimated
Thu 02:25:00 PM -19.5476 25.9328 348° North  Level Estimated
Thu 02:26:00 PM -19.4224 25.9053 348° North  Level Estimated
Thu 02:27:00 PM -19.2972 25.8778 348° North  Level Estimated
Thu 02:28:00 PM -19.1719 25.8504 348° North  Level Estimated
Thu 02:29:00 PM -19.0467 25.8230 348° North  Level Estimated
Thu 02:30:00 PM -18.9214 25.7957 348° North  Level Estimated
Thu 02:31:00 PM -18.7961 25.7684 348° North  Level Estimated
Thu 02:32:00 PM -18.6709 25.7412 348° North  Level Estimated
Thu 02:33:00 PM -18.5456 25.7140 348° North  Level Estimated
Thu 02:34:00 PM -18.4203 25.6868 348° North  Level Estimated
Thu 02:35:00 PM -18.2951 25.6597 348° North  Level Estimated
Thu 02:36:00 PM -18.1698 25.6326 348° North  Level Estimated
Thu 02:37:00 PM -18.0445 25.6055 348° North  Level Estimated
Thu 02:38:00 PM -17.9192 25.5785 348° North  Level Estimated
Thu 02:39:00 PM -17.7939 25.5515 348° North  Level Estimated
Thu 02:40:00 PM -17.6686 25.5246 348° North  Level Estimated
Thu 02:41:00 PM -17.5433 25.4977 348° North  Level Estimated
Thu 02:42:00 PM -17.4180 25.4708 348° North  Level Estimated
Thu 02:43:00 PM -17.2927 25.4440 348° North  Level Estimated
Thu 02:44:00 PM -17.1674 25.4172 348° North  Level Estimated
Thu 02:45:00 PM -17.0421 25.3905 348° North  Level Estimated
Thu 02:46:00 PM -16.9168 25.3638 348° North  Level Estimated
Thu 02:47:00 PM -16.7915 25.3371 348° North  Level Estimated
Thu 02:48:00 PM -16.6661 25.3104 348° North  Level Estimated
Thu 02:49:00 PM -16.5408 25.2838 348° North  Level Estimated
Thu 02:50:00 PM -16.4155 25.2573 349° North  Level Estimated
Thu 02:51:00 PM -16.2901 25.2307 349° North  Level Estimated
Thu 02:52:00 PM -16.1648 25.2042 349° North  Level Estimated
Thu 02:53:00 PM -16.0395 25.1777 349° North  Level Estimated
Thu 02:54:00 PM -15.9141 25.1513 349° North  Level Estimated
Thu 02:55:00 PM -15.7888 25.1249 349° North  Level Estimated
Thu 02:56:00 PM -15.6634 25.0985 349° North  Level Estimated
Thu 02:57:00 PM -15.5381 25.0722 349° North  Level Estimated
Thu 02:58:00 PM -15.4127 25.0459 349° North  Level Estimated
Thu 02:59:00 PM -15.2873 25.0196 349° North  Level Estimated
Thu 03:00:00 PM -15.1620 24.9933 349° North  Level Estimated
Thu 03:01:00 PM -15.0366 24.9671 349° North  Level Estimated
Thu 03:02:00 PM -14.9113 24.9409 349° North  Level Estimated
Thu 03:03:00 PM -14.7859 24.9148 349° North  Level Estimated
Thu 03:04:00 PM -14.6605 24.8887 349° North  Level Estimated
Thu 03:05:00 PM -14.5351 24.8626 349° North  Level Estimated
Thu 03:06:00 PM -14.4097 24.8365 349° North  Level Estimated
Thu 03:07:00 PM -14.2844 24.8105 349° North  Level Estimated
Thu 03:08:00 PM -14.1590 24.7845 349° North  Level Estimated
Thu 03:09:00 PM -14.0336 24.7585 349° North  Level Estimated
Thu 03:10:00 PM -13.9082 24.7325 349° North  Level Estimated
Thu 03:11:00 PM -13.7828 24.7066 349° North  Level Estimated
Thu 03:12:00 PM -13.6574 24.6807 349° North  Level Estimated
Thu 03:13:00 PM -13.5320 24.6549 349° North  Level Estimated
Thu 03:14:00 PM -13.4066 24.6290 349° North  Level Estimated
Thu 03:15:00 PM -13.2812 24.6032 349° North  Level Estimated
Thu 03:16:00 PM -13.1558 24.5774 349° North  Level Estimated
Thu 03:17:00 PM -13.0304 24.5517 349° North  Level Estimated
Thu 03:18:00 PM -12.9050 24.5259 349° North  Level Estimated
Thu 03:19:00 PM -12.7796 24.5002 349° North  Level Estimated
Thu 03:20:00 PM -12.6542 24.4745 349° North  Level Estimated
Thu 03:21:00 PM -12.5287 24.4489 349° North  Level Estimated
Thu 03:22:00 PM -12.4033 24.4233 349° North  Level Estimated
Thu 03:23:00 PM -12.2779 24.3976 349° North  Level Estimated
Thu 03:24:00 PM -12.1525 24.3721 349° North  Level Estimated
Thu 03:25:00 PM -12.0270 24.3465 349° North  Level Estimated
Thu 03:26:00 PM -11.9016 24.3210 349° North  Level Estimated
Thu 03:27:00 PM -11.7762 24.2955 349° North  Level Estimated
Thu 03:28:00 PM -11.6507 24.2700 349° North  Level Estimated
Thu 03:29:00 PM -11.5253 24.2445 349° North  Level Estimated
Thu 03:30:00 PM -11.3998 24.2191 349° North  Level Estimated
Thu 03:31:00 PM -11.2744 24.1936 349° North  Level Estimated
Thu 03:32:00 PM -11.1490 24.1682 349° North  Level Estimated
Thu 03:33:00 PM -11.0235 24.1429 349° North  Level Estimated
Thu 03:34:00 PM -10.8981 24.1175 349° North  Level Estimated
Thu 03:35:00 PM -10.7726 24.0922 349° North  Level Estimated
Thu 03:36:00 PM -10.6472 24.0669 349° North  Level Estimated
Thu 03:37:00 PM -10.5217 24.0416 349° North  Level Estimated
Thu 03:38:00 PM -10.3962 24.0163 349° North  Level Estimated
Thu 03:39:00 PM -10.2708 23.9911 349° North  Level Estimated
Thu 03:40:00 PM -10.1453 23.9658 349° North  Level Estimated
Thu 03:41:00 PM -10.0199 23.9406 349° North  Level Estimated
Thu 03:42:00 PM -9.8944 23.9154 349° North  Level Estimated
Thu 03:43:00 PM -9.7689 23.8903 349° North  Level Estimated
Thu 03:44:00 PM -9.6434 23.8651 349° North  Level Estimated
Thu 03:45:00 PM -9.5180 23.8400 349° North  Level Estimated
Thu 03:46:00 PM -9.3925 23.8149 349° North  Level Estimated
Thu 03:47:00 PM -9.2670 23.7898 349° North  Level Estimated
Thu 03:48:00 PM -9.1416 23.7647 349° North  Level Estimated
Thu 03:49:00 PM -9.0161 23.7396 349° North  Level Estimated
Thu 03:50:00 PM -8.8906 23.7146 349° North  Level Estimated
Thu 03:51:00 PM -8.7651 23.6896 349° North  Level Estimated
Thu 03:52:00 PM -8.6396 23.6646 349° North  Level Estimated
Thu 03:53:00 PM -8.5142 23.6396 349° North  Level Estimated
Thu 03:54:00 PM -8.3887 23.6146 349° North  Level Estimated
Thu 03:55:00 PM -8.2632 23.5896 349° North  Level Estimated
Thu 03:56:00 PM -8.1377 23.5647 349° North  Level Estimated
Thu 03:57:00 PM -8.0122 23.5398 349° North  Level Estimated
Thu 03:58:00 PM -7.8867 23.5149 349° North  Level Estimated
Thu 03:59:00 PM -7.7612 23.4900 349° North  Level Estimated
Thu 04:00:00 PM -7.6357 23.4651 349° North  Level Estimated
Thu 04:01:00 PM -7.5102 23.4402 349° North  Level Estimated
Thu 04:02:00 PM -7.3847 23.4153 349° North  Level Estimated
Thu 04:03:00 PM -7.2592 23.3905 349° North  Level Estimated
Thu 04:04:00 PM -7.1337 23.3657 349° North  Level Estimated
Thu 04:05:00 PM -7.0082 23.3409 349° North  Level Estimated
Thu 04:06:00 PM -6.8827 23.3161 349° North  Level Estimated
Thu 04:07:00 PM -6.7572 23.2913 349° North  Level Estimated
Thu 04:08:00 PM -6.6317 23.2665 349° North  Level Estimated
Thu 04:09:00 PM -6.5062 23.2418 349° North  Level Estimated
Thu 04:10:00 PM -6.3807 23.2170 349° North  Level Estimated
Thu 04:11:00 PM -6.2552 23.1923 349° North  Level Estimated
Thu 04:12:00 PM -6.1297 23.1675 349° North  Level Estimated
Thu 04:13:00 PM -6.0042 23.1428 349° North  Level Estimated
Thu 04:14:00 PM -5.8787 23.1181 349° North  Level Estimated
Thu 04:15:00 PM -5.7531 23.0934 349° North  Level Estimated
Thu 04:16:00 PM -5.6276 23.0688 349° North  Level Estimated
Thu 04:17:00 PM -5.5021 23.0441 349° North  Level Estimated
Thu 04:18:00 PM -5.3766 23.0194 349° North  Level Estimated
Thu 04:19:00 PM -5.2511 22.9948 349° North  Level Estimated
Thu 04:20:00 PM -5.1255 22.9701 349° North  Level Estimated
Thu 04:21:00 PM -5.0000 22.9455 349° North  Level Estimated
Thu 04:22:00 PM -4.8745 22.9209 349° North  Level Estimated
Thu 04:23:00 PM -4.7490 22.8963 349° North  Level Estimated
Thu 04:24:00 PM -4.6235 22.8717 349° North  Level Estimated
Thu 04:25:00 PM -4.4980 22.8471 349° North  Level Estimated
Thu 04:26:00 PM -4.3724 22.8225 349° North  Level Estimated
Thu 04:27:00 PM -4.2469 22.7979 349° North  Level Estimated
Thu 04:28:00 PM -4.1214 22.7734 349° North  Level Estimated
Thu 04:29:00 PM -3.9958 22.7488 349° North  Level Estimated
Thu 04:30:00 PM -3.8703 22.7243 349° North  Level Estimated
Thu 04:31:00 PM -3.7448 22.6997 349° North  Level Estimated
Thu 04:32:00 PM -3.6193 22.6752 349° North  Level Estimated
Thu 04:33:00 PM -3.4937 22.6506 349° North  Level Estimated
Thu 04:34:00 PM -3.3682 22.6261 349° North  Level Estimated
Thu 04:35:00 PM -3.2427 22.6016 349° North  Level Estimated
Thu 04:36:00 PM -3.1171 22.5771 349° North  Level Estimated
Thu 04:37:00 PM -2.9916 22.5526 349° North  Level Estimated
Thu 04:38:00 PM -2.8661 22.5281 349° North  Level Estimated
Thu 04:39:00 PM -2.7405 22.5036 349° North  Level Estimated
Thu 04:40:00 PM -2.6150 22.4791 349° North  Level Estimated
Thu 04:41:00 PM -2.4895 22.4546 349° North  Level Estimated
Thu 04:42:00 PM -2.3640 22.4301 349° North  Level Estimated
Thu 04:43:00 PM -2.2384 22.4056 349° North  Level Estimated
Thu 04:44:00 PM -2.1129 22.3812 349° North  Level Estimated
Thu 04:45:00 PM -1.9873 22.3567 349° North  Level Estimated
Thu 04:46:00 PM -1.8618 22.3322 349° North  Level Estimated
Thu 04:47:00 PM -1.7363 22.3078 349° North  Level Estimated
Thu 04:48:00 PM -1.6107 22.2833 349° North  Level Estimated
Thu 04:49:00 PM -1.4852 22.2589 349° North  Level Estimated
Thu 04:50:00 PM -1.3596 22.2344 349° North  Level Estimated
Thu 04:51:00 PM -1.2341 22.2100 349° North  Level Estimated
Thu 04:52:00 PM -1.1086 22.1855 349° North  Level Estimated
Thu 04:53:00 PM -0.9830 22.1611 349° North  Level Estimated
Thu 04:54:00 PM -0.8575 22.1366 349° North  Level Estimated
Thu 04:55:00 PM -0.7319 22.1122 349° North  Level Estimated
Thu 04:56:00 PM -0.6064 22.0877 349° North  Level Estimated
Thu 04:57:00 PM -0.4809 22.0633 349° North  Level Estimated
Thu 04:58:00 PM -0.3553 22.0389 349° North  Level Estimated
Thu 04:59:00 PM -0.2298 22.0144 349° North  Level Estimated
Thu 05:00:00 PM -0.1042 21.9900 349° North  Level Estimated
Thu 05:01:00 PM 0.0213 21.9655 349° North  Level Estimated
Thu 05:02:00 PM 0.1468 21.9411 349° North  Level Estimated
Thu 05:03:00 PM 0.2724 21.9167 349° North  Level Estimated
Thu 05:04:00 PM 0.3979 21.8922 349° North  Level Estimated
Thu 05:05:00 PM 0.5235 21.8678 349° North  Level Estimated
Thu 05:06:00 PM 0.6490 21.8433 349° North  Level Estimated
Thu 05:07:00 PM 0.7745 21.8189 349° North  Level Estimated
Thu 05:08:00 PM 0.9001 21.7945 349° North  Level Estimated
Thu 05:09:00 PM 1.0256 21.7700 349° North  Level Estimated
Thu 05:10:00 PM 1.1512 21.7456 349° North  Level Estimated
Thu 05:11:00 PM 1.2767 21.7211 349° North  Level Estimated
Thu 05:12:00 PM 1.4022 21.6967 349° North  Level Estimated
Thu 05:13:00 PM 1.5278 21.6722 349° North  Level Estimated
Thu 05:14:00 PM 1.6533 21.6478 349° North  Level Estimated
Thu 05:15:00 PM 1.7789 21.6233 349° North  Level Estimated
Thu 05:16:00 PM 1.9044 21.5989 349° North  Level Estimated
Thu 05:17:00 PM 2.0299 21.5744 349° North  Level Estimated
Thu 05:18:00 PM 2.1555 21.5499 349° North  Level Estimated
Thu 05:19:00 PM 2.2810 21.5254 349° North  Level Estimated
Thu 05:20:00 PM 2.4065 21.5010 349° North  Level Estimated
Thu 05:21:00 PM 2.5321 21.4765 349° North  Level Estimated
Thu 05:22:00 PM 2.6576 21.4520 349° North  Level Estimated
Thu 05:23:00 PM 2.7831 21.4275 349° North  Level Estimated
Thu 05:24:00 PM 2.9087 21.4030 349° North  Level Estimated
Thu 05:25:00 PM 3.0342 21.3785 349° North  Level Estimated
Thu 05:26:00 PM 3.1597 21.3540 349° North  Level Estimated
Thu 05:27:00 PM 3.2853 21.3295 349° North  Level Estimated
Thu 05:28:00 PM 3.4108 21.3050 349° North  Level Estimated
Thu 05:29:00 PM 3.5363 21.2804 349° North  Level Estimated
Thu 05:30:00 PM 3.6618 21.2559 349° North  Level Estimated
Thu 05:31:00 PM 3.7874 21.2314 349° North  Level Estimated
Thu 05:32:00 PM 3.9129 21.2068 349° North  Level Estimated
Thu 05:33:00 PM 4.0384 21.1823 349° North  Level Estimated
Thu 05:34:00 PM 4.1640 21.1577 349° North  Level Estimated
Thu 05:35:00 PM 4.2895 21.1331 349° North  Level Estimated
Thu 05:36:00 PM 4.4150 21.1085 349° North  Level Estimated
Thu 05:37:00 PM 4.5405 21.0840 349° North  Level Estimated
Thu 05:38:00 PM 4.6661 21.0594 349° North  Level Estimated
Thu 05:39:00 PM 4.7916 21.0348 349° North  Level Estimated
Thu 05:40:00 PM 4.9171 21.0102 349° North  Level Estimated
Thu 05:41:00 PM 5.0426 20.9855 349° North  Level Estimated
Thu 05:42:00 PM 5.1681 20.9609 349° North  Level Estimated
Thu 05:43:00 PM 5.2937 20.9363 349° North  Level Estimated
Thu 05:44:00 PM 5.4192 20.9116 349° North  Level Estimated
Thu 05:45:00 PM 5.5447 20.8869 349° North  Level Estimated
Thu 05:46:00 PM 5.6702 20.8623 349° North  Level Estimated
Thu 05:47:00 PM 5.7957 20.8376 349° North  Level Estimated
Thu 05:48:00 PM 5.9212 20.8129 349° North  Level Estimated
Thu 05:49:00 PM 6.0468 20.7882 349° North  Level Estimated
Thu 05:50:00 PM 6.1723 20.7635 349° North  Level Estimated
Thu 05:51:00 PM 6.2978 20.7388 349° North  Level Estimated
Thu 05:52:00 PM 6.4233 20.7140 349° North  Level Estimated
Thu 05:53:00 PM 6.5488 20.6893 349° North  Level Estimated
Thu 05:54:00 PM 6.6743 20.6645 349° North  Level Estimated
Thu 05:55:00 PM 6.7998 20.6397 349° North  Level Estimated
Thu 05:56:00 PM 6.9253 20.6149 349° North  Level Estimated
Thu 05:57:00 PM 7.0508 20.5901 349° North  Level Estimated
Thu 05:58:00 PM 7.1763 20.5653 349° North  Level Estimated
Thu 05:59:00 PM 7.3018 20.5405 349° North  Level Estimated
Thu 06:00:00 PM 7.4273 20.5156 349° North  Level Estimated
Thu 06:01:00 PM 7.5528 20.4908 349° North  Level Estimated
Thu 06:02:00 PM 7.6783 20.4659 349° North  Level Estimated
Thu 06:03:00 PM 7.8038 20.4410 349° North  Level Estimated
Thu 06:04:00 PM 7.9293 20.4161 349° North  Level Estimated
Thu 06:05:00 PM 8.0548 20.3912 349° North  Level Estimated
Thu 06:06:00 PM 8.1803 20.3662 349° North  Level Estimated
Thu 06:07:00 PM 8.3058 20.3413 349° North  Level Estimated
Thu 06:08:00 PM 8.4312 20.3163 349° North  Level Estimated
Thu 06:09:00 PM 8.5567 20.2913 349° North  Level Estimated
Thu 06:10:00 PM 8.6822 20.2663 349° North  Level Estimated
Thu 06:11:00 PM 8.8077 20.2413 349° North  Level Estimated
Thu 06:12:00 PM 8.9332 20.2163 349° North  Level Estimated
Thu 06:13:00 PM 9.0587 20.1912 349° North  Level Estimated
Thu 06:14:00 PM 9.1841 20.1662 349° North  Level Estimated
Thu 06:15:00 PM 9.3096 20.1411 349° North  Level Estimated
Thu 06:16:00 PM 9.4351 20.1160 349° North  Level Estimated
Thu 06:17:00 PM 9.5606 20.0909 349° North  Level Estimated
Thu 06:18:00 PM 9.6860 20.0657 349° North  Level Estimated
Thu 06:19:00 PM 9.8115 20.0406 349° North  Level Estimated
Thu 06:20:00 PM 9.9370 20.0154 349° North  Level Estimated
Thu 06:21:00 PM 10.0624 19.9902 349° North  Level Estimated
Thu 06:22:00 PM 10.1879 19.9650 349° North  Level Estimated
Thu 06:23:00 PM 10.3133 19.9397 349° North  Level Estimated
Thu 06:24:00 PM 10.4388 19.9145 349° North  Level Estimated
Thu 06:25:00 PM 10.5643 19.8892 349° North  Level Estimated
Thu 06:26:00 PM 10.6897 19.8639 349° North  Level Estimated
Thu 06:27:00 PM 10.8152 19.8386 349° North  Level Estimated
Thu 06:28:00 PM 10.9406 19.8132 349° North  Level Estimated
Thu 06:29:00 PM 11.0661 19.7879 349° North  Level Estimated
Thu 06:30:00 PM 11.1915 19.7625 349° North  Level Estimated
Thu 06:31:00 PM 11.3170 19.7371 349° North  Level Estimated
Thu 06:32:00 PM 11.4424 19.7117 349° North  Level Estimated
Thu 06:33:00 PM 11.5678 19.6862 349° North  Level Estimated
Thu 06:34:00 PM 11.6933 19.6607 349° North  Level Estimated
Thu 06:35:00 PM 11.8187 19.6353 349° North  Level Estimated
Thu 06:36:00 PM 11.9441 19.6097 349° North  Level Estimated
Thu 06:37:00 PM 12.0696 19.5842 349° North  Level Estimated
Thu 06:38:00 PM 12.1950 19.5586 349° North  Level Estimated
Thu 06:39:00 PM 12.3204 19.5330 349° North  Level Estimated
Thu 06:40:00 PM 12.4459 19.5074 349° North  Level Estimated
Thu 06:41:00 PM 12.5713 19.4818 349° North  Level Estimated
Thu 06:42:00 PM 12.6967 19.4561 349° North  Level Estimated
Thu 06:43:00 PM 12.8221 19.4304 349° North  Level Estimated
Thu 06:44:00 PM 12.9475 19.4047 349° North  Level Estimated
Thu 06:45:00 PM 13.0729 19.3790 349° North  Level Estimated
Thu 06:46:00 PM 13.1983 19.3532 349° North  Level Estimated
Thu 06:47:00 PM 13.3238 19.3274 349° North  Level Estimated
Thu 06:48:00 PM 13.4492 19.3016 349° North  Level Estimated
Thu 06:49:00 PM 13.5746 19.2757 349° North  Level Estimated
Thu 06:50:00 PM 13.7000 19.2499 349° North  Level Estimated
Thu 06:51:00 PM 13.8254 19.2240 349° North  Level Estimated
Thu 06:52:00 PM 13.9508 19.1980 349° North  Level Estimated
Thu 06:53:00 PM 14.0761 19.1721 349° North  Level Estimated
Thu 06:54:00 PM 14.2015 19.1461 349° North  Level Estimated
Thu 06:55:00 PM 14.3269 19.1201 349° North  Level Estimated
Thu 06:56:00 PM 14.4523 19.0940 349° North  Level Estimated
Thu 06:57:00 PM 14.5777 19.0679 349° North  Level Estimated
Thu 06:58:00 PM 14.7030 19.0418 349° North  Level Estimated
Thu 06:59:00 PM 14.8284 19.0157 349° North  Level Estimated
Thu 07:00:00 PM 14.9538 18.9895 349° North  Level Estimated
Thu 07:01:00 PM 15.0792 18.9634 349° North  Level Estimated
Thu 07:02:00 PM 15.2045 18.9371 349° North  Level Estimated
Thu 07:03:00 PM 15.3299 18.9109 349° North  Level Estimated
Thu 07:04:00 PM 15.4552 18.8846 349° North  Level Estimated
Thu 07:05:00 PM 15.5806 18.8582 349° North  Level Estimated
Thu 07:06:00 PM 15.7059 18.8319 349° North  Level Estimated
Thu 07:07:00 PM 15.8313 18.8055 349° North  Level Estimated
Thu 07:08:00 PM 15.9566 18.7791 349° North  Level Estimated
Thu 07:09:00 PM 16.0820 18.7526 349° North  Level Estimated
Thu 07:10:00 PM 16.2073 18.7262 349° North  Level Estimated
Thu 07:11:00 PM 16.3327 18.6996 349° North  Level Estimated
Thu 07:12:00 PM 16.4580 18.6731 349° North  Level Estimated
Thu 07:13:00 PM 16.5833 18.6465 349° North  Level Estimated
Thu 07:14:00 PM 16.7087 18.6199 349° North  Level Estimated
Thu 07:15:00 PM 16.8340 18.5932 348° North  Level Estimated
Thu 07:16:00 PM 16.9593 18.5665 348° North  Level Estimated
Thu 07:17:00 PM 17.0846 18.5398 348° North  Level Estimated
Thu 07:18:00 PM 17.2099 18.5130 348° North  Level Estimated
Thu 07:19:00 PM 17.3352 18.4862 348° North  Level Estimated
Thu 07:20:00 PM 17.4605 18.4594 348° North  Level Estimated
Thu 07:21:00 PM 17.5858 18.4325 348° North  Level Estimated
Thu 07:22:00 PM 17.7111 18.4056 348° North  Level Estimated
Thu 07:23:00 PM 17.8364 18.3787 348° North  Level Estimated
Thu 07:24:00 PM 17.9617 18.3517 348° North  Level Estimated
Thu 07:25:00 PM 18.0870 18.3247 348° North  Level Estimated
Thu 07:26:00 PM 18.2123 18.2976 348° North  Level Estimated
Thu 07:27:00 PM 18.3376 18.2705 348° North  Level Estimated
Thu 07:28:00 PM 18.4629 18.2434 348° North  Level Estimated
Thu 07:29:00 PM 18.5881 18.2162 348° North  Level Estimated
Thu 07:30:00 PM 18.7134 18.1890 348° North  Level Estimated
Thu 07:31:00 PM 18.8386 18.1617 348° North  Level Estimated
Thu 07:32:00 PM 18.9639 18.1344 348° North  Level Estimated
Thu 07:33:00 PM 19.0892 18.1071 348° North  Level Estimated
Thu 07:34:00 PM 19.2144 18.0797 348° North  Level Estimated
Thu 07:35:00 PM 19.3397 18.0522 348° North  Level Estimated
Thu 07:36:00 PM 19.4649 18.0248 348° North  Level Estimated
Thu 07:37:00 PM 19.5902 17.9973 348° North  Level Estimated
Thu 07:38:00 PM 19.7154 17.9697 348° North  Level Estimated
Thu 07:39:00 PM 19.8406 17.9421 348° North  Level Estimated
Thu 07:40:00 PM 19.9658 17.9145 348° North  Level Estimated
Thu 07:41:00 PM 20.0911 17.8868 348° North  Level Estimated
Thu 07:42:00 PM 20.2163 17.8591 348° North  Level Estimated
Thu 07:43:00 PM 20.3415 17.8313 348° North  Level Estimated
Thu 07:44:00 PM 20.4667 17.8035 348° North  Level Estimated
Thu 07:45:00 PM 20.5919 17.7756 348° North  Level Estimated
Thu 07:46:00 PM 20.7171 17.7477 348° North  Level Estimated
Thu 07:47:00 PM 20.8423 17.7197 348° North  Level Estimated
Thu 07:48:00 PM 20.9675 17.6917 348° North  Level Estimated
Thu 07:49:00 PM 21.0927 17.6637 348° North  Level Estimated
Thu 07:50:00 PM 21.2179 17.6356 348° North  Level Estimated
Thu 07:51:00 PM 21.3430 17.6075 348° North  Level Estimated
Thu 07:52:00 PM 21.4682 17.5793 348° North  Level Estimated
Thu 07:53:00 PM 21.5934 17.5510 348° North  Level Estimated
Thu 07:54:00 PM 21.7185 17.5227 348° North  Level Estimated
Thu 07:55:00 PM 21.8437 17.4944 348° North  Level Estimated
Thu 07:56:00 PM 21.9688 17.4660 348° North  Level Estimated
Thu 07:57:00 PM 22.0940 17.4376 348° North  Level Estimated
Thu 07:58:00 PM 22.2191 17.4091 348° North  Level Estimated
Thu 07:59:00 PM 22.3443 17.3805 348° North  Level Estimated
Thu 08:00:00 PM 22.4694 17.3519 348° North  Level Estimated
Thu 08:01:00 PM 22.5945 17.3233 348° North  Level Estimated
Thu 08:02:00 PM 22.7197 17.2946 348° North  Level Estimated
Thu 08:03:00 PM 22.8448 17.2659 348° North  Level Estimated
Thu 08:04:00 PM 22.9699 17.2371 348° North  Level Estimated
Thu 08:05:00 PM 23.0950 17.2082 348° North  Level Estimated
Thu 08:06:00 PM 23.2201 17.1793 348° North  Level Estimated
Thu 08:07:00 PM 23.3452 17.1504 348° North  Level Estimated
Thu 08:08:00 PM 23.4703 17.1213 348° North  Level Estimated
Thu 08:09:00 PM 23.5954 17.0923 348° North  Level Estimated
Thu 08:10:00 PM 23.7205 17.0631 348° North  Level Estimated
Thu 08:11:00 PM 23.8455 17.0340 348° North  Level Estimated
Thu 08:12:00 PM 23.9706 17.0047 348° North  Level Estimated
Thu 08:13:00 PM 24.0957 16.9754 348° North  Level Estimated
Thu 08:14:00 PM 24.2207 16.9461 348° North  Level Estimated
Thu 08:15:00 PM 24.3458 16.9167 348° North  Level Estimated
Thu 08:16:00 PM 24.4708 16.8872 348° North  Level Estimated
Thu 08:17:00 PM 24.5959 16.8577 348° North  Level Estimated
Thu 08:18:00 PM 24.7209 16.8281 348° North  Level Estimated
Thu 08:19:00 PM 24.8459 16.7984 348° North  Level Estimated
Thu 08:20:00 PM 24.9710 16.7687 348° North  Level Estimated
Thu 08:21:00 PM 25.0960 16.7389 348° North  Level Estimated
Thu 08:22:00 PM 25.2210 16.7091 348° North  Level Estimated
Thu 08:23:00 PM 25.3460 16.6792 348° North  Level Estimated
Thu 08:24:00 PM 25.4710 16.6493 348° North  Level Estimated
Thu 08:25:00 PM 25.5960 16.6192 348° North  Level Estimated
Thu 08:26:00 PM 25.7210 16.5892 348° North  Level Estimated
Thu 08:27:00 PM 25.8460 16.5590 348° North  Level Estimated
Thu 08:28:00 PM 25.9709 16.5288 348° North  Level Estimated
Thu 08:29:00 PM 26.0959 16.4986 348° North  Level Estimated
Thu 08:30:00 PM 26.2209 16.4682 348° North  Level Estimated
Thu 08:31:00 PM 26.3458 16.4378 348° North  Level Estimated
Thu 08:32:00 PM 26.4708 16.4074 348° North  Level Estimated
Thu 08:33:00 PM 26.5957 16.3768 348° North  Level Estimated
Thu 08:34:00 PM 26.7207 16.3462 348° North  Level Estimated
Thu 08:35:00 PM 26.8456 16.3156 348° North  Level Estimated
Thu 08:36:00 PM 26.9705 16.2848 348° North  Level Estimated
Thu 08:37:00 PM 27.0954 16.2540 348° North  Level Estimated
Thu 08:38:00 PM 27.2203 16.2232 348° North  Level Estimated
Thu 08:39:00 PM 27.3452 16.1922 348° North  Level Estimated
Thu 08:40:00 PM 27.4701 16.1612 348° North  Level Estimated
Thu 08:41:00 PM 27.5950 16.1301 348° North  Level Estimated
Thu 08:42:00 PM 27.7199 16.0990 348° North  Level Estimated
Thu 08:43:00 PM 27.8448 16.0678 348° North  Level Estimated
Thu 08:44:00 PM 27.9697 16.0365 348° North  Level Estimated
Thu 08:45:00 PM 28.0945 16.0051 348° North  Level Estimated
Thu 08:46:00 PM 28.2194 15.9737 347° North  Level Estimated
Thu 08:47:00 PM 28.3442 15.9422 347° North  Level Estimated
Thu 08:48:00 PM 28.4691 15.9106 347° North  Level Estimated
Thu 08:49:00 PM 28.5939 15.8789 347° North  Level Estimated
Thu 08:50:00 PM 28.7187 15.8472 347° North  Level Estimated
Thu 08:51:00 PM 28.8435 15.8154 347° North  Level Estimated
Thu 08:52:00 PM 28.9684 15.7835 347° North  Level Estimated
Thu 08:53:00 PM 29.0932 15.7515 347° North  Level Estimated
Thu 08:54:00 PM 29.2180 15.7195 347° North  Level Estimated
Thu 08:55:00 PM 29.3428 15.6874 347° North  Level Estimated
Thu 08:56:00 PM 29.4675 15.6552 347° North  Level Estimated
Thu 08:57:00 PM 29.5923 15.6229 347° North  Level Estimated
Thu 08:58:00 PM 29.7171 15.5906 347° North  Level Estimated
Thu 08:59:00 PM 29.8418 15.5581 347° North  Level Estimated
Thu 09:00:00 PM 29.9666 15.5256 347° North  Level Estimated
Thu 09:01:00 PM 30.0913 15.4930 347° North  Level Estimated
Thu 09:02:00 PM 30.2160 15.4603 347° North  Level Estimated
Thu 09:03:00 PM 30.3408 15.4275 347° North  Level Estimated
Thu 09:04:00 PM 30.4655 15.3947 347° North  Level Estimated
Thu 09:05:00 PM 30.5902 15.3618 347° North  Level Estimated
Thu 09:06:00 PM 30.7149 15.3287 347° North  Level Estimated
Thu 09:07:00 PM 30.8396 15.2956 347° North  Level Estimated
Thu 09:08:00 PM 30.9643 15.2625 347° North  Level Estimated
Thu 09:09:00 PM 31.0890 15.2292 347° North  Level Estimated
Thu 09:10:00 PM 31.2136 15.1958 347° North  Level Estimated
Thu 09:11:00 PM 31.3383 15.1623 347° North  Level Estimated
Thu 09:11:28 PM 32.6720 10.8950 347° North 461 531 38,000  Level FlightAware ADS-B
Thu 09:12:00 PM 31.4629 15.1288 347° North  Level Estimated
Thu 09:12:08 PM 32.7560 10.8830 353° North 460 529 38,000  Level FlightAware ADS-B
Thu 09:12:48 PM 32.8340 10.8710 353° North 459 528 38,000  Level FlightAware ADS-B
Thu 09:13:48 PM 32.9570 10.8510 352° North 457 526 38,000  Level FlightAware ADS-B
Thu 09:14:28 PM 33.0290 10.8390 352° North 457 526 38,000  Level FlightAware ADS-B
Thu 09:15:13 PM 33.1430 10.8240 354° North 455 524 38,000  Level FlightAware ADS-B
Thu 09:15:53 PM 33.2260 10.8110 353° North 455 524 38,000  Level FlightAware ADS-B
Thu 09:16:38 PM 33.3210 10.7960 352° North 455 524 38,000  Level FlightAware ADS-B
Thu 09:17:18 PM 33.4060 10.7830 353° North 456 525 38,000  Level FlightAware ADS-B
Thu 09:17:58 PM 33.4900 10.7700 353° North 455 524 38,000  Level FlightAware ADS-B
Thu 09:18:43 PM 33.5820 10.7560 353° North 453 521 38,000  Level FlightAware ADS-B
Thu 09:19:18 PM 33.6520 10.7450 353° North 452 520 38,000  Level FlightAware ADS-B
Thu 09:20:08 PM 33.7620 10.7280 353° North 454 522 38,000  Level FlightAware ADS-B
Thu 09:20:48 PM 33.8470 10.7150 353° North 455 524 38,000  Level FlightAware ADS-B
Thu 09:21:28 PM 33.9270 10.7030 353° North 455 524 38,000  Level FlightAware ADS-B
Thu 09:22:13 PM 34.0210 10.6880 352° North 454 522 38,000  Level FlightAware ADS-B
Thu 09:22:53 PM 34.1050 10.6750 353° North 454 522 38,000  Level FlightAware ADS-B
Thu 09:23:38 PM 34.2010 10.6600 353° North 455 524 38,000  Level FlightAware ADS-B
Thu 09:24:18 PM 34.2840 10.6470 353° North 454 522 38,000  Level FlightAware ADS-B
Thu 09:24:58 PM 34.3660 10.6340 353° North 452 520 38,000  Level FlightAware ADS-B
Thu 09:25:43 PM 34.4590 10.6190 352° North 453 521 38,000  Level FlightAware ADS-B
Thu 09:26:23 PM 34.5430 10.6060 353° North 454 522 38,000  Level FlightAware ADS-B
Thu 09:27:08 PM 34.6400 10.5910 353° North 455 524 38,000  Level FlightAware ADS-B
Thu 09:27:48 PM 34.7220 10.5780 353° North 456 525 38,000  Level FlightAware ADS-B
Thu 09:28:28 PM 34.8050 10.5640 352° North 455 524 38,000  Level FlightAware ADS-B
Thu 09:29:13 PM 34.8980 10.5500 353° North 457 526 38,000  Level FlightAware ADS-B
Thu 09:29:53 PM 34.9830 10.5360 352° North 458 527 38,000  Level FlightAware ADS-B
Thu 09:30:33 PM 35.0680 10.5230 353° North 458 527 38,000  Level FlightAware ADS-B
Thu 09:31:18 PM 35.1650 10.5070 352° North 458 527 38,000  Level FlightAware ADS-B
Thu 09:31:58 PM 35.2480 10.4940 353° North 457 526 38,000  Level FlightAware ADS-B
Thu 09:32:43 PM 35.3390 10.4790 352° North 457 526 38,000  Level FlightAware ADS-B
Thu 09:33:23 PM 35.4250 10.4650 352° North 458 527 38,000  Level FlightAware ADS-B
Thu 09:34:03 PM 35.5100 10.4510 352° North 457 526 38,000  Level FlightAware ADS-B
Thu 09:34:48 PM 35.6060 10.4360 353° North 458 527 38,000  Level FlightAware ADS-B
Thu 09:35:28 PM 35.6880 10.4220 352° North 456 525 38,000  Level FlightAware ADS-B
Thu 09:36:13 PM 35.7820 10.4070 353° North 458 527 38,000  Level FlightAware ADS-B
Thu 09:36:53 PM 35.8660 10.3940 353° North 460 529 38,000  Level FlightAware ADS-B
Thu 09:37:38 PM 35.9640 10.3770 352° North 461 531 38,000  Level FlightAware ADS-B
Thu 09:38:18 PM 36.0490 10.3640 353° North 460 529 38,000  Level FlightAware ADS-B
Thu 09:38:58 PM 36.1310 10.3500 352° North 460 529 38,000  Level FlightAware ADS-B
Thu 09:39:43 PM 36.2250 10.3350 353° North 460 529 38,000  Level FlightAware ADS-B
Thu 09:40:23 PM 36.3100 10.3210 352° North 461 531 38,000  Level FlightAware ADS-B
Thu 09:41:08 PM 36.4080 10.3040 352° North 462 532 38,000  Level FlightAware ADS-B
Thu 09:41:48 PM 36.4880 10.2910 353° North 461 531 38,000  Level FlightAware ADS-B
Thu 09:42:28 PM 36.5750 10.2770 353° North 460 529 38,000  Level FlightAware ADS-B
Thu 09:43:13 PM 36.6690 10.2610 352° North 458 527 38,000  Level FlightAware ADS-B
Thu 09:43:53 PM 36.7520 10.2470 352° North 455 524 38,000  Level FlightAware ADS-B
Thu 09:44:38 PM 36.8480 10.2310 352° North 452 520 38,000  Level FlightAware ADS-B
Thu 09:45:18 PM 36.9280 10.2070 347° North 446 513 38,000  Level FlightAware ADS-B
Thu 09:45:58 PM 37.0090 10.1820 346° North 449 517 38,000  Level FlightAware ADS-B
Thu 09:46:43 PM 37.0970 10.1540 346° North 450 518 38,000  Level FlightAware ADS-B
Thu 09:47:23 PM 37.1790 10.1290 346° North 452 520 38,000  Level FlightAware ADS-B
Thu 09:48:08 PM 37.2730 10.0990 346° North 453 521 38,000  Level FlightAware ADS-B
Thu 09:48:48 PM 37.3550 10.0730 346° North 454 522 38,000  Level FlightAware ADS-B
Thu 09:49:28 PM 37.4350 10.0480 346° North 455 524 38,000  Level FlightAware ADS-B
Thu 09:50:13 PM 37.5230 10.0210 346° North 455 524 38,000  Level FlightAware ADS-B
Thu 09:50:53 PM 37.6070 9.9940 346° North 456 525 38,000  Level FlightAware ADS-B
Thu 09:51:48 PM 37.7150 9.9590 346° North 455 524 38,000  Level FlightAware ADS-B
Thu 09:52:28 PM 37.7840 9.9360 345° North 455 524 38,000  Level FlightAware ADS-B
Thu 09:53:08 PM 37.8530 9.9120 345° North 455 524 38,000  Level FlightAware ADS-B
Thu 09:53:53 PM 37.9780 9.8820 349° North 461 531 38,000  Level FlightAware ADS-B
Thu 09:54:38 PM 38.0730 9.8560 348° North 460 529 38,000  Level FlightAware ADS-B
Thu 09:55:18 PM 38.1560 9.8330 348° North 459 528 38,000  Level FlightAware ADS-B
Thu 09:56:08 PM 38.2520 9.8050 347° North 459 528 38,000  Level FlightAware ADS-B
Thu 09:56:58 PM 38.3400 9.7790 347° North 459 528 38,000  Level FlightAware ADS-B
Thu 09:57:38 PM 38.4100 9.7590 347° North 459 528 38,000  Level FlightAware ADS-B
Thu 09:58:18 PM 38.4810 9.7380 347° North 459 528 38,000  Level FlightAware ADS-B
Thu 09:58:58 PM 38.5510 9.7170 347° North 459 528 38,000  Level FlightAware ADS-B
Thu 09:59:38 PM 38.6210 9.6960 347° North 459 528 38,000  Level FlightAware ADS-B
Thu 10:00:28 PM 38.7980 9.6530 349° North 455 524 38,000  Level FlightAware ADS-B
Thu 10:01:18 PM 38.9010 9.6240 348° North 455 524 38,000  Level FlightAware ADS-B
Thu 10:01:58 PM 38.9740 9.6030 347° North 455 524 38,000  Level FlightAware ADS-B
Thu 10:02:48 PM 39.0610 9.5770 347° North 455 524 38,000  Level FlightAware ADS-B
Thu 10:03:28 PM 39.1310 9.5560 347° North 455 524 38,000  Level FlightAware ADS-B
Thu 10:04:08 PM 39.2000 9.5350 347° North 455 524 38,000  Level FlightAware ADS-B
Thu 10:04:48 PM 39.2700 9.5140 347° North 455 524 38,000  Level FlightAware ADS-B
Thu 10:05:48 PM 39.4470 9.4680 349° North 446 513 38,000  Level FlightAware ADS-B
Thu 10:06:28 PM 39.5230 9.4450 347° North 447 514 38,000  Level FlightAware ADS-B
Thu 10:07:08 PM 39.5910 9.4250 347° North 447 514 38,000  Level FlightAware ADS-B
Thu 10:07:53 PM 39.7080 9.4040 352° North 468 539 38,000  Level FlightAware ADS-B
Thu 10:08:33 PM 39.7790 9.3830 347° North 468 539 38,000  Level FlightAware ADS-B
Thu 10:09:33 PM 39.8980 9.4150 12° North 474 545 38,000  Level FlightAware ADS-B
Thu 10:10:28 PM 40.0100 9.4120 359° North 476 548 38,000  Level FlightAware ADS-B
Thu 10:11:08 PM 40.1040 9.4100 359° North 475 547 38,000  Level FlightAware ADS-B
Thu 10:11:53 PM 40.2340 9.4070 359° North 469 540 38,000  Level FlightAware ADS-B
Thu 10:12:33 PM 40.3280 9.4050 359° North 470 541 38,000  Level FlightAware ADS-B
Thu 10:13:18 PM 40.4270 9.4020 359° North 468 539 38,000  Level FlightAware ADS-B
Thu 10:13:58 PM 40.5150 9.4000 359° North 466 536 38,000  Level FlightAware ADS-B
Thu 10:14:38 PM 40.6020 9.3980 359° North 464 534 38,000  Level FlightAware ADS-B
Thu 10:15:23 PM 40.7010 9.3960 359° North 466 536 38,000  Level FlightAware ADS-B
Thu 10:16:03 PM 40.7890 9.3940 359° North 467 537 38,000  Level FlightAware ADS-B
Thu 10:16:48 PM 40.8880 9.3910 359° North 467 537 38,000  Level FlightAware ADS-B
Thu 10:17:28 PM 40.9760 9.3890 359° North 469 540 38,000  Level FlightAware ADS-B
Thu 10:18:08 PM 41.0650 9.3870 359° North 468 539 38,000  Level FlightAware ADS-B
Thu 10:18:53 PM 41.1640 9.3850 359° North 469 540 38,000  Level FlightAware ADS-B
Thu 10:19:33 PM 41.2520 9.3830 359° North 479 551 38,000  Level FlightAware ADS-B
Thu 10:20:13 PM 41.3420 9.3800 359° North 479 551 38,000  Level FlightAware ADS-B
Thu 10:20:53 PM 41.4170 9.3790 359° North 470 541 38,000  Level FlightAware ADS-B
Thu 10:21:33 PM 41.5120 9.3760 359° North 467 537 38,000  Level FlightAware ADS-B
Thu 10:22:23 PM 41.6310 9.3730 359° North 478 550 38,000  Level FlightAware ADS-B
Thu 10:23:03 PM 41.7200 9.3710 359° North 480 552 38,000  Level FlightAware ADS-B
Thu 10:23:43 PM 41.8090 9.3690 359° North 474 545 38,000  Level FlightAware ADS-B
Thu 10:24:28 PM 41.9100 9.3660 359° North 477 549 38,000  Level FlightAware ADS-B
Thu 10:25:08 PM 41.9940 9.3640 359° North 477 549 38,000  Level FlightAware ADS-B
Thu 10:25:53 PM 42.0950 9.3620 359° North 478 550 38,000  Level FlightAware ADS-B
Thu 10:26:33 PM 42.1840 9.3590 359° North 481 554 38,000  Level FlightAware ADS-B
Thu 10:27:18 PM 42.2820 9.3570 359° North 478 550 38,000  Level FlightAware ADS-B
Thu 10:27:58 PM 42.3730 9.3550 359° North 477 549 38,000 75 Level FlightAware ADS-B
Thu 10:28:38 PM 42.4610 9.3520 359° North 479 551 38,100 450 Climbing FlightAware ADS-B
Thu 10:29:18 PM 42.5500 9.3500 359° North 484 557 38,600 776 Climbing FlightAware ADS-B
Thu 10:30:03 PM 42.6500 9.3480 359° North 485 558 39,200 706 Climbing FlightAware ADS-B
Thu 10:30:43 PM 42.7390 9.3450 359° North 487 560 39,600 565 Climbing FlightAware ADS-B
Thu 10:31:28 PM 42.8420 9.3430 359° North 486 559 40,000 282 Climbing FlightAware ADS-B
Thu 10:32:08 PM 42.9320 9.3410 359° North 492 566 40,000  Level FlightAware ADS-B
Thu 10:32:53 PM 43.0320 9.3330 357° North 489 563 40,000  Level FlightAware ADS-B
Thu 10:33:38 PM 43.1350 9.3200 355° North 492 566 40,000  Level FlightAware ADS-B
Thu 10:34:18 PM 43.2270 9.3110 356° North 491 565 40,000  Level FlightAware ADS-B
Thu 10:34:58 PM 43.3170 9.3010 355° North 490 564 40,000  Level FlightAware ADS-B
Thu 10:35:43 PM 43.4170 9.2910 356° North 490 564 40,000  Level FlightAware ADS-B
Thu 10:36:23 PM 43.5080 9.2810 355° North 487 560 40,000  Level FlightAware ADS-B
Thu 10:37:08 PM 43.6060 9.2710 356° North 489 563 40,000  Level FlightAware ADS-B
Thu 10:37:48 PM 43.6960 9.2610 355° North 492 566 40,000  Level FlightAware ADS-B
Thu 10:38:28 PM 43.7880 9.2510 356° North 493 567 40,000  Level FlightAware ADS-B
Thu 10:39:13 PM 43.8930 9.2400 356° North 488 562 40,000  Level FlightAware ADS-B
Thu 10:39:53 PM 43.9830 9.2310 356° North 489 563 40,000  Level FlightAware ADS-B
Thu 10:40:38 PM 44.0840 9.2200 356° North 491 565 40,000  Level FlightAware ADS-B
Thu 10:41:18 PM 44.1740 9.2100 355° North 488 562 40,000  Level FlightAware ADS-B
Thu 10:41:58 PM 44.2620 9.2010 356° North 487 560 40,000  Level FlightAware ADS-B
Thu 10:42:43 PM 44.3660 9.1890 355° North 490 564 40,000  Level FlightAware ADS-B
Thu 10:43:23 PM 44.4580 9.1790 356° North 490 564 40,000  Level FlightAware ADS-B
Thu 10:44:03 PM 44.5480 9.1700 356° North 490 564 40,000  Level FlightAware ADS-B
Thu 10:44:48 PM 44.6480 9.1590 356° North 489 563 40,000  Level FlightAware ADS-B
Thu 10:45:33 PM 44.7460 9.1480 355° North 489 563 40,000  Level FlightAware ADS-B
Thu 10:46:13 PM 44.8380 9.1380 356° North 489 563 40,000  Level FlightAware ADS-B
Thu 10:46:53 PM 44.9270 9.1280 355° North 489 563 40,000  Level FlightAware ADS-B
Thu 10:47:33 PM 45.0170 9.1180 356° North 488 562 40,000  Level FlightAware ADS-B
Thu 10:48:18 PM 45.1200 9.1060 355° North 486 559 40,000  Level FlightAware ADS-B
Thu 10:48:58 PM 45.2080 9.0970 356° North 482 555 40,000  Level FlightAware ADS-B
Thu 10:49:43 PM 45.3100 9.0850 355° North 483 556 40,000  Level FlightAware ADS-B
Thu 10:50:18 PM 45.3800 9.0770 355° North 485 558 40,000  Level FlightAware ADS-B
Thu 10:50:58 PM 45.4760 9.0660 355° North 486 559 40,000  Level FlightAware ADS-B
Thu 10:51:48 PM 45.5900 9.0540 356° North 487 560 40,000  Level FlightAware ADS-B
Thu 10:52:28 PM 45.6800 9.0430 355° North 487 560 40,000  Level FlightAware ADS-B
Thu 10:53:13 PM 45.7820 9.0320 356° North 491 565 40,000  Level FlightAware ADS-B
Thu 10:53:53 PM 45.8710 9.0220 356° North 490 564 40,000  Level FlightAware ADS-B
Thu 10:54:38 PM 45.9710 9.0100 355° North 491 565 40,000  Level FlightAware ADS-B
Thu 10:55:13 PM 46.0360 9.0090 359° North 497 572 40,000  Level FlightAware ADS-B
Thu 10:55:58 PM 46.1360 9.0190 North 497 572 40,000  Level FlightAware ADS-B
Thu 10:56:33 PM 46.2200 9.0260 North 497 572 40,000  Level FlightAware ADS-B
Thu 10:57:23 PM 46.3310 9.0350 North 495 570 40,000  Level FlightAware ADS-B
Thu 10:57:58 PM 46.4140 9.0420 North 494 568 40,000  Level FlightAware ADS-B
Thu 10:58:48 PM 46.5230 9.0510 North 497 572 40,000  Level FlightAware ADS-B
Thu 10:59:28 PM 46.6280 9.0600 North 501 577 40,000  Level FlightAware ADS-B
Thu 11:00:13 PM 46.7310 9.0680 North 502 578 40,000  Level FlightAware ADS-B
Thu 11:00:53 PM 46.8320 9.0770 North 496 571 40,000  Level FlightAware ADS-B
Thu 11:01:33 PM 46.9280 9.0850 North 497 572 40,000  Level FlightAware ADS-B
Thu 11:02:18 PM 47.0310 9.0940 North 497 572 40,000  Level FlightAware ADS-B
Thu 11:02:53 PM 47.1140 9.1010 North 499 574 40,000  Level FlightAware ADS-B
Thu 11:04:13 PM 47.2850 9.1150 North 496 571 40,000  Level FlightAware ADS-B
Thu 11:05:03 PM 47.4100 9.1260 North 498 573 40,000  Level FlightAware ADS-B
Thu 11:05:48 PM 47.5170 9.1360 North 500 575 40,000  Level FlightAware ADS-B
Thu 11:06:28 PM 47.6100 9.1440 North 500 575 40,000  Level FlightAware ADS-B
Thu 11:07:13 PM 47.7170 9.1530 North 499 574 40,000  Level FlightAware ADS-B
Thu 11:07:53 PM 47.8110 9.1610 North 503 579 40,000  Level FlightAware ADS-B
Thu 11:08:33 PM 47.9050 9.1690 North 503 579 40,000 -918 Level FlightAware ADS-B
Thu 11:09:18 PM 48.0080 9.1790 North 499 574 38,700 -1,906 Descending FlightAware ADS-B
Thu 11:09:58 PM 48.1050 9.1870 North 497 572 37,300 -1,976 Descending FlightAware ADS-B
Thu 11:10:43 PM 48.2080 9.1960 North 499 574 35,900 -1,976 Descending FlightAware ADS-B
Thu 11:11:23 PM 48.3020 9.2050 North 512 589 34,500 -2,025 Descending FlightAware ADS-B
Thu 11:12:03 PM 48.3970 9.2130 North 513 590 33,200 -1,920 Descending FlightAware ADS-B
Thu 11:12:38 PM 48.4810 9.2210 North 530 610 32,100 -2,047 Descending FlightAware ADS-B
Thu 11:13:28 PM 48.6080 9.2320 North 534 615 30,300 -2,021 Descending FlightAware ADS-B
Thu 11:14:13 PM 48.7200 9.2430 North 533 613 28,900 -1,976 Descending FlightAware ADS-B
Thu 11:14:53 PM 48.8170 9.2510 North 519 597 27,500 -2,025 Descending FlightAware ADS-B
Thu 11:15:33 PM 48.9140 9.2600 North 511 588 26,200 -1,835 Descending FlightAware ADS-B
Thu 11:16:18 PM 49.0210 9.2700 North 498 573 24,900 -1,694 Descending FlightAware ADS-B
Thu 11:16:58 PM 49.1150 9.2790 North 500 575 23,800 -1,835 Descending FlightAware ADS-B
Thu 11:17:43 PM 49.2150 9.3060 10° North 490 564 22,300 -1,768 Descending FlightAware ADS-B
Thu 11:18:33 PM 49.3210 9.3530 16° North 473 544 21,000 -1,958 Descending FlightAware ADS-B
Thu 11:19:18 PM 49.4140 9.3950 16° North 453 521 19,200 -2,600 Descending FlightAware ADS-B
Thu 11:20:03 PM 49.5010 9.4360 17° North 439 505 17,100 -2,682 Descending FlightAware ADS-B
Thu 11:20:43 PM 49.5780 9.4720 17° North 420 483 15,400 -1,760 Descending FlightAware ADS-B
Thu 11:21:18 PM 49.6410 9.5020 17° North 405 466 14,900 -758 Descending FlightAware ADS-B
Thu 11:22:18 PM 49.7380 9.5280 10° North 362 417 14,200 -667 Descending FlightAware ADS-B
Thu 11:22:48 PM 49.7830 9.4820 327° Northwest 302 348 13,900 -600 Descending FlightAware ADS-B
Thu 11:23:28 PM 49.8200 9.4200 313° West 285 328 13,500 -494 Descending FlightAware ADS-B
Thu 11:24:13 PM 49.8580 9.3550 312° West 252 290 13,200 -600 Descending FlightAware ADS-B
Thu 11:24:28 PM 49.8660 9.3310 297° West 241 277 12,900 -1,091 Descending FlightAware ADS-B
Thu 11:25:08 PM 49.8740 9.2640 281° West 239 275 12,200 -1,059 Descending FlightAware ADS-B
Thu 11:25:53 PM 49.8860 9.1890 284° West 239 275 11,400 -1,059 Descending FlightAware ADS-B
Thu 11:26:33 PM 49.8950 9.1220 282° West 236 272 10,700 -975 Descending FlightAware ADS-B
Thu 11:27:13 PM 49.9090 9.0570 289° West 245 282 10,100 -764 Descending FlightAware ADS-B
Thu 11:27:28 PM 49.9230 9.0430 327° Northwest 255 293 10,000 -200 Descending FlightAware ADS-B
Thu 11:27:43 PM 49.9410 9.0420 358° North 264 304 10,000  Level FlightAware ADS-B
Thu 11:27:58 PM 49.9570 9.0540 26° Northeast 270 311 10,000 -600 Level FlightAware ADS-B
Thu 11:28:13 PM 49.9700 9.0760 47° Northeast 274 315 9,700 -1,050 Descending FlightAware ADS-B
Thu 11:28:38 PM 49.9890 9.1150 53° Northeast 272 313 9,300 -764 Descending FlightAware ADS-B
Thu 11:29:08 PM 50.0130 9.1620 52° Northeast 280 322 9,000 -400 Descending FlightAware ADS-B
Thu 11:29:23 PM 50.0290 9.1830 40° Northeast 275 316 9,000  Level FlightAware ADS-B
Thu 11:29:48 PM 50.0560 9.2030 25° Northeast 267 307 9,000  Level FlightAware ADS-B
Thu 11:30:03 PM 50.0740 9.2150 23° Northeast 262 302 9,000  Level FlightAware ADS-B
Thu 11:30:33 PM 50.1000 9.2110 354° North 257 296 9,000  Level FlightAware ADS-B
Thu 11:30:48 PM 50.1180 9.2000 339° North 253 291 9,000 -840 Level FlightAware ADS-B
Thu 11:31:23 PM 50.1530 9.1740 335° Northwest 246 283 8,300 -1,309 Descending FlightAware ADS-B
Thu 11:31:43 PM 50.1660 9.1440 304° West 230 265 7,800 -1,467 Descending FlightAware ADS-B
Thu 11:32:08 PM 50.1590 9.0940 258° West 216 249 7,200 -1,527 Descending FlightAware ADS-B
Thu 11:32:38 PM 50.1500 9.0500 252° West 212 244 6,400 -1,200 Descending FlightAware ADS-B
Thu 11:33:03 PM 50.1410 9.0160 248° West 199 229 6,100 -873 Descending FlightAware ADS-B
Thu 11:33:33 PM 50.1320 8.9760 251° West 187 215 5,600 -764 Descending FlightAware ADS-B
Thu 11:33:58 PM 50.1270 8.9560 249° West 183 211 5,400 -840 Descending FlightAware ADS-B
Thu 11:34:23 PM 50.1200 8.9240 251° West 184 212 4,900 -900 Descending FlightAware ADS-B
Thu 11:34:58 PM 50.1100 8.8830 249° West 167 192 4,500 -600 Descending FlightAware ADS-B
Thu 11:35:23 PM 50.1040 8.8560 251° West 166 191 4,300 -545 Descending FlightAware ADS-B
Thu 11:35:53 PM 50.0960 8.8220 250° West 170 196 4,000 -764 Descending FlightAware ADS-B
Thu 11:36:18 PM 50.0890 8.7920 250° West 173 199 3,600 -982 Descending FlightAware ADS-B
Thu 11:36:48 PM 50.0810 8.7570 250° West 171 197 3,100 -960 Descending FlightAware ADS-B
Thu 11:37:08 PM 50.0760 8.7380 248° West 162 186 2,800 -873 Descending FlightAware ADS-B
Thu 11:37:43 PM 50.0670 8.7000 250° West 132 152 2,300 -800 Descending FlightAware ADS-B
Thu 11:38:08 PM 50.0620 8.6790 250° West 125 144 2,000 -400 Descending FlightAware ADS-B
Thu 11:38:43 PM 50.0550 8.6520 248° West 126 145 1,900 -171 Descending FlightAware ADS-B
Thu 11:41:00 PM 50.0264 8.5431 248° West  Level Estimated
Thu 11:42:00 PM 50.0264 8.5431 73° East  Level Estimated
Thu 11:43:00 PM 50.0264 8.5431 73° East  Level Estimated
Thu 11:44:00 PM 50.0264 8.5431 73° East  Level Estimated
Thu 11:45:00 PM 50.0264 8.5431 73° East  Level Estimated
Thu 11:46:00 PM 50.0264 8.5431 73° East  Level Estimated
Thu 11:47:00 PM 50.0264 8.5431 73° East  Level Estimated
Thu 11:48:00 PM 50.0264 8.5431 73° East  Level Estimated
Thu 11:49:00 PM 50.0264 8.5431 73° East  Level Estimated
Thu 11:50:00 PM 50.0264 8.5431 73° East  Level Estimated
Thu 11:51:00 PM 50.0264 8.5431 73° East  Level Estimated
Thu 11:52:00 PM 50.0264 8.5431 73° East  Level Estimated

Login

Don't have an account? Register now (free) for customized features, flight alerts, and more!